createdAt,value
2018-09-25T00:01:05.089Z,98447.58
2018-09-25T00:03:39.447Z,98441.00
2018-09-25T00:06:13.799Z,98442.75
2018-09-25T00:08:48.329Z,98442.59
2018-09-25T00:11:22.710Z,98450.62
2018-09-25T00:13:57.167Z,98452.91
2018-09-25T00:16:31.618Z,98453.50
2018-09-25T00:19:05.958Z,98450.88
2018-09-25T00:21:40.331Z,98444.78
2018-09-25T00:24:14.734Z,98449.91
2018-09-25T00:26:49.106Z,98448.93
2018-09-25T00:29:23.498Z,98447.77
2018-09-25T00:31:58.095Z,98447.53
2018-09-25T00:34:32.507Z,98448.20
2018-09-25T00:37:06.954Z,98447.50
2018-09-25T00:39:41.416Z,98446.83
2018-09-25T00:42:15.938Z,98443.73
2018-09-25T00:44:51.476Z,98456.02
2018-09-25T00:47:25.862Z,98452.05
2018-09-25T00:50:00.274Z,98452.22
2018-09-25T00:52:34.754Z,98450.89
2018-09-25T00:55:09.390Z,98450.89
2018-09-25T00:57:43.930Z,98444.49
2018-09-25T01:00:18.386Z,98450.60
2018-09-25T01:02:52.918Z,98448.77
2018-09-25T01:05:27.298Z,98444.49
2018-09-25T01:08:01.879Z,98444.84
2018-09-25T01:10:36.366Z,98441.23
2018-09-25T01:13:10.762Z,98442.03
2018-09-25T01:15:45.123Z,98444.87
2018-09-25T01:18:19.494Z,98447.17
2018-09-25T01:20:53.973Z,98445.75
2018-09-25T01:23:28.351Z,98445.33
2018-09-25T01:26:02.884Z,98439.78
2018-09-25T01:28:37.316Z,98442.05
2018-09-25T01:31:11.698Z,98442.59
2018-09-25T01:33:46.118Z,98447.60
2018-09-25T01:36:21.783Z,98445.33
2018-09-25T01:38:56.195Z,98445.59
2018-09-25T01:41:30.542Z,98441.22
2018-09-25T01:44:05.117Z,98444.41
2018-09-25T01:46:39.697Z,98436.03
2018-09-25T01:49:13.970Z,98438.17
2018-09-25T01:51:52.477Z,98442.47
2018-09-25T01:54:26.978Z,98446.89
2018-09-25T01:57:01.323Z,98449.28
2018-09-25T01:59:35.717Z,98450.59
2018-09-25T02:02:10.127Z,98449.26
2018-09-25T02:04:44.590Z,98447.01
2018-09-25T02:07:19.038Z,98445.64
2018-09-25T02:09:53.613Z,98448.75
2018-09-25T02:12:27.986Z,98443.16
2018-09-25T02:15:02.538Z,98449.28
2018-09-25T02:17:36.927Z,98451.98
2018-09-25T02:20:11.483Z,98445.22
2018-09-25T02:22:45.861Z,98440.56
2018-09-25T02:25:20.286Z,98453.05
2018-09-25T02:27:54.665Z,98455.81
2018-09-25T02:30:29.051Z,98457.63
2018-09-25T02:33:03.578Z,98459.70
2018-09-25T02:35:38.107Z,98453.52
2018-09-25T02:38:12.479Z,98461.02
2018-09-25T02:40:46.892Z,98462.23
2018-09-25T02:43:22.207Z,98458.33
2018-09-25T02:45:56.595Z,98464.71
2018-09-25T02:48:31.038Z,98463.16
2018-09-25T02:51:05.451Z,98466.12
2018-09-25T02:53:39.846Z,98467.01
2018-09-25T02:56:14.222Z,98458.00
2018-09-25T02:58:48.606Z,98465.75
2018-09-25T03:01:23.260Z,98467.48
2018-09-25T03:03:57.720Z,98471.27
2018-09-25T03:06:32.179Z,98463.78
2018-09-25T03:09:06.611Z,98469.45
2018-09-25T03:11:40.975Z,98465.78
2018-09-25T03:14:15.490Z,98461.87
2018-09-25T03:16:49.932Z,98464.84
2018-09-25T03:19:24.438Z,98459.66
2018-09-25T03:21:58.871Z,98465.86
2018-09-25T03:24:33.418Z,98453.42
2018-09-25T03:27:07.891Z,98454.85
2018-09-25T03:29:42.387Z,98450.22
2018-09-25T03:32:16.872Z,98452.38
2018-09-25T03:34:52.128Z,98447.28
2018-09-25T03:37:26.645Z,98451.86
2018-09-25T03:40:01.047Z,98450.30
2018-09-25T03:42:35.595Z,98447.02
2018-09-25T03:45:10.098Z,98446.11
2018-09-25T03:47:44.411Z,98457.08
2018-09-25T03:50:18.851Z,98455.77
2018-09-25T03:52:54.196Z,98453.95
2018-09-25T03:55:28.609Z,98449.39
2018-09-25T03:58:03.106Z,98451.18
2018-09-25T04:00:37.485Z,98456.63
2018-09-25T04:03:12.000Z,98463.53
2018-09-25T04:05:46.420Z,98465.58
2018-09-25T04:08:22.078Z,98460.06
2018-09-25T04:10:56.583Z,98460.83
2018-09-25T04:13:31.192Z,98460.75
2018-09-25T04:16:05.536Z,98456.55
2018-09-25T04:18:40.047Z,98469.17
2018-09-25T04:21:14.452Z,98471.80
2018-09-25T04:23:48.886Z,98471.74
2018-09-25T04:26:23.270Z,98471.55
2018-09-25T04:28:57.690Z,98480.45
2018-09-25T04:31:32.063Z,98479.18
2018-09-25T04:34:06.479Z,98481.30
2018-09-25T04:36:41.013Z,98487.66
2018-09-25T04:39:15.412Z,98483.73
2018-09-25T04:41:49.909Z,98487.38
2018-09-25T04:44:24.295Z,98486.98
2018-09-25T04:46:58.730Z,98492.15
2018-09-25T04:49:33.075Z,98492.67
2018-09-25T04:52:07.489Z,98494.41
2018-09-25T04:54:41.946Z,98489.25
2018-09-25T04:57:19.290Z,98492.25
2018-09-25T04:59:53.723Z,98490.24
2018-09-25T05:02:28.133Z,98489.63
2018-09-25T05:05:02.563Z,98499.84
2018-09-25T05:07:38.197Z,98502.36
2018-09-25T05:10:12.554Z,98507.80
2018-09-25T05:12:47.006Z,98509.63
2018-09-25T05:15:22.543Z,98511.18
2018-09-25T05:17:57.032Z,98508.04
2018-09-25T05:20:31.331Z,98514.22
2018-09-25T05:23:05.727Z,98518.14
2018-09-25T05:25:40.153Z,98520.77
2018-09-25T05:28:14.571Z,98522.17
2018-09-25T05:30:48.879Z,98525.22
2018-09-25T05:33:23.267Z,98526.62
2018-09-25T05:35:57.622Z,98530.08
2018-09-25T05:38:32.086Z,98524.45
2018-09-25T05:41:06.584Z,98530.41
2018-09-25T05:43:41.086Z,98532.79
2018-09-25T05:46:15.415Z,98536.91
2018-09-25T05:48:49.976Z,98541.49
2018-09-25T05:51:24.375Z,98533.36
2018-09-25T05:53:58.765Z,98537.48
2018-09-25T05:56:33.144Z,98539.06
2018-09-25T05:59:07.515Z,98538.05
2018-09-25T06:01:41.924Z,98543.29
2018-09-25T06:04:16.467Z,98554.58
2018-09-25T06:06:51.060Z,98552.80
2018-09-25T06:09:25.565Z,98545.27
2018-09-25T06:12:31.071Z,98544.61
2018-09-25T06:15:05.422Z,98554.30
2018-09-25T06:17:39.743Z,98555.57
2018-09-25T06:20:14.273Z,98560.82
2018-09-25T06:22:48.684Z,98558.57
2018-09-25T06:25:23.195Z,98553.09
2018-09-25T06:27:57.485Z,98558.05
2018-09-25T06:30:31.869Z,98556.26
2018-09-25T06:33:06.217Z,98560.60
2018-09-25T06:35:40.675Z,98568.93
2018-09-25T06:38:15.126Z,98569.08
2018-09-25T06:40:49.583Z,98571.05
2018-09-25T06:43:24.263Z,98585.31
2018-09-25T06:45:58.679Z,98581.16
2018-09-25T06:48:33.451Z,98585.19
2018-09-25T06:51:07.942Z,98587.08
2018-09-25T06:53:42.405Z,98590.52
2018-09-25T06:56:16.699Z,98590.91
2018-09-25T06:58:51.071Z,98601.11
2018-09-25T07:01:25.752Z,98595.02
2018-09-25T07:04:00.206Z,98589.79
2018-09-25T07:06:34.627Z,98588.53
2018-09-25T07:09:12.439Z,98595.88
2018-09-25T07:11:47.167Z,98592.88
2018-09-25T07:14:21.586Z,98595.02
2018-09-25T07:16:55.911Z,98590.46
2018-09-25T07:19:30.347Z,98591.36
2018-09-25T07:22:05.004Z,98596.92
2018-09-25T07:24:40.290Z,98597.76
2018-09-25T07:27:14.529Z,98603.56
2018-09-25T07:29:49.046Z,98600.53
2018-09-25T07:32:23.539Z,98604.52
2018-09-25T07:34:57.891Z,98599.13
2018-09-25T07:37:32.432Z,98600.97
2018-09-25T07:40:06.939Z,98605.59
2018-09-25T07:42:41.478Z,98603.28
2018-09-25T07:45:15.970Z,98606.97
2018-09-25T07:47:50.451Z,98603.58
2018-09-25T07:50:24.802Z,98607.37
2018-09-25T07:52:59.188Z,98602.99
2018-09-25T07:55:33.741Z,98597.77
2018-09-25T07:58:08.123Z,98603.69
2018-09-25T08:00:42.634Z,98604.84
2018-09-25T08:03:17.044Z,98600.09
2018-09-25T08:05:51.455Z,98594.16
2018-09-25T08:08:25.857Z,98603.87
2018-09-25T08:11:00.395Z,98605.03
2018-09-25T08:13:34.909Z,98602.59
2018-09-25T08:16:10.594Z,98599.95
2018-09-25T08:18:44.971Z,98599.60
2018-09-25T08:21:19.314Z,98606.02
2018-09-25T08:23:53.830Z,98607.99
2018-09-25T08:26:28.148Z,98593.88
2018-09-25T08:29:02.514Z,98592.28
2018-09-25T08:31:36.970Z,98600.25
2018-09-25T08:34:11.334Z,98595.72
2018-09-25T08:36:45.832Z,98597.54
2018-09-25T08:39:20.257Z,98599.29
2018-09-25T08:41:54.509Z,98594.78
2018-09-25T08:44:28.989Z,98602.13
2018-09-25T08:47:03.476Z,98596.10
2018-09-25T08:49:38.015Z,98599.94
2018-09-25T08:52:12.514Z,98603.14
2018-09-25T08:54:46.965Z,98600.50
2018-09-25T08:57:21.332Z,98606.36
2018-09-25T08:59:55.941Z,98606.45
2018-09-25T09:02:30.442Z,98603.98
2018-09-25T09:05:04.745Z,98604.52
2018-09-25T09:07:40.288Z,98612.04
2018-09-25T09:10:14.743Z,98607.83
2018-09-25T09:12:49.277Z,98610.92
2018-09-25T09:15:23.774Z,98612.91
2018-09-25T09:17:58.431Z,98618.47
2018-09-25T09:20:32.907Z,98608.92
2018-09-25T09:23:07.275Z,98621.93
2018-09-25T09:25:41.703Z,98622.80
2018-09-25T09:28:16.267Z,98615.62
2018-09-25T09:30:50.595Z,98618.69
2018-09-25T09:33:24.949Z,98617.48
2018-09-25T09:35:59.343Z,98614.92
2018-09-25T09:38:33.838Z,98620.50
2018-09-25T09:41:08.418Z,98624.67
2018-09-25T09:43:42.899Z,98627.92
2018-09-25T09:46:17.356Z,98626.98
2018-09-25T09:48:51.981Z,98624.50
2018-09-25T09:51:26.466Z,98626.39
2018-09-25T09:54:00.775Z,98622.06
2018-09-25T09:56:35.114Z,98614.69
2018-09-25T09:59:43.607Z,98617.48
2018-09-25T10:02:17.995Z,98614.62
2018-09-25T10:04:52.496Z,98610.93
2018-09-25T10:07:26.980Z,98618.34
2018-09-25T10:10:01.441Z,98609.09
2018-09-25T10:12:35.735Z,98611.16
2018-09-25T10:15:11.158Z,98611.63
2018-09-25T10:17:45.738Z,98610.97
2018-09-25T10:20:20.086Z,98608.92
2018-09-25T10:22:54.564Z,98611.31
2018-09-25T10:25:28.943Z,98606.61
2018-09-25T10:28:03.477Z,98606.63
2018-09-25T10:30:38.054Z,98603.83
2018-09-25T10:33:12.535Z,98596.43
2018-09-25T10:35:46.918Z,98605.68
2018-09-25T10:38:21.456Z,98613.00
2018-09-25T10:40:55.836Z,98607.69
2018-09-25T10:43:30.158Z,98605.63
2018-09-25T10:46:04.616Z,98611.11
2018-09-25T10:48:39.018Z,98602.54
2018-09-25T10:51:13.579Z,98600.10
2018-09-25T10:53:47.974Z,98597.88
2018-09-25T10:56:22.558Z,98599.20
2018-09-25T10:58:57.027Z,98599.12
2018-09-25T11:01:31.387Z,98599.12
2018-09-25T11:04:05.749Z,98589.67
2018-09-25T11:06:41.164Z,98587.49
2018-09-25T11:09:15.743Z,98590.34
2018-09-25T11:11:50.229Z,98582.52
2018-09-25T11:14:24.813Z,98576.98
2018-09-25T11:16:59.195Z,98585.38
2018-09-25T11:19:33.735Z,98576.33
2018-09-25T11:22:08.146Z,98573.97
2018-09-25T11:24:42.660Z,98569.03
2018-09-25T11:27:17.111Z,98573.72
2018-09-25T11:29:51.469Z,98575.05
2018-09-25T11:32:25.852Z,98567.61
2018-09-25T11:35:00.363Z,98555.95
2018-09-25T11:37:34.772Z,98566.08
2018-09-25T11:40:09.071Z,98558.35
2018-09-25T11:42:43.582Z,98561.53
2018-09-25T11:45:18.066Z,98556.59
2018-09-25T11:47:52.575Z,98561.78
2018-09-25T11:50:27.040Z,98556.02
2018-09-25T11:53:01.572Z,98552.95
2018-09-25T11:55:35.974Z,98556.58
2018-09-25T11:58:11.395Z,98555.34
2018-09-25T12:00:45.905Z,98546.20
2018-09-25T12:03:20.459Z,98539.25
2018-09-25T12:05:54.950Z,98537.16
2018-09-25T12:08:29.496Z,98541.34
2018-09-25T12:11:03.829Z,98532.28
2018-09-25T12:13:38.468Z,98528.40
2018-09-25T12:16:12.825Z,98531.97
2018-09-25T12:18:47.170Z,98530.34
2018-09-25T12:21:21.619Z,98527.38
2018-09-25T12:23:56.131Z,98533.61
2018-09-25T12:26:30.797Z,98531.78
2018-09-25T12:29:05.239Z,98525.66
2018-09-25T12:31:40.978Z,98537.64
2018-09-25T12:34:15.527Z,98533.05
2018-09-25T12:36:49.936Z,98532.22
2018-09-25T12:39:24.454Z,98527.05
2018-09-25T12:41:59.063Z,98525.03
2018-09-25T12:44:33.500Z,98530.16
2018-09-25T12:47:08.019Z,98531.86
2018-09-25T12:49:42.568Z,98527.54
2018-09-25T12:52:17.079Z,98528.59
2018-09-25T12:54:51.471Z,98529.47
2018-09-25T12:57:25.819Z,98521.45
2018-09-25T13:00:00.266Z,98520.39
2018-09-25T13:02:34.724Z,98525.75
2018-09-25T13:08:14.431Z,98528.48
2018-09-25T13:10:48.947Z,98523.37
2018-09-25T13:13:23.468Z,98528.63
2018-09-25T13:15:58.994Z,98523.47
2018-09-25T13:18:33.367Z,98526.23
2018-09-25T13:21:07.830Z,98522.00
2018-09-25T13:23:42.548Z,98523.94
2018-09-25T13:26:16.866Z,98521.50
2018-09-25T13:28:51.230Z,98522.80
2018-09-25T13:31:25.759Z,98522.95
2018-09-25T13:34:00.233Z,98514.03
2018-09-25T13:36:34.625Z,98515.55
2018-09-25T13:39:08.898Z,98519.57
2018-09-25T13:41:43.798Z,98510.20
2018-09-25T13:44:18.131Z,98512.14
2018-09-25T13:46:52.687Z,98505.53
2018-09-25T13:49:27.223Z,98499.64
2018-09-25T13:52:01.715Z,98492.08
2018-09-25T13:54:36.025Z,98485.77
2018-09-25T13:57:10.591Z,98488.88
2018-09-25T13:59:44.934Z,98495.11
2018-09-25T14:02:19.255Z,98492.48
2018-09-25T14:04:53.660Z,98494.34
2018-09-25T14:07:28.090Z,98485.81
2018-09-25T14:10:02.469Z,98488.27
2018-09-25T14:12:36.980Z,98488.56
2018-09-25T14:15:11.462Z,98487.70
2018-09-25T14:17:45.795Z,98490.63
2018-09-25T14:20:20.114Z,98497.57
2018-09-25T14:22:54.720Z,98507.78
2018-09-25T14:25:29.163Z,98503.19
2018-09-25T14:28:03.724Z,98488.97
2018-09-25T14:30:38.110Z,98475.23
2018-09-25T14:33:13.794Z,98480.62
2018-09-25T14:35:48.175Z,98486.73
2018-09-25T14:38:22.515Z,98479.94
2018-09-25T14:40:57.085Z,98482.00
2018-09-25T14:43:31.567Z,98480.16
2018-09-25T14:46:05.879Z,98485.70
2018-09-25T14:48:40.266Z,98478.50
2018-09-25T14:51:14.701Z,98484.09
2018-09-25T14:53:49.227Z,98479.61
2018-09-25T14:56:23.639Z,98474.12
2018-09-25T14:58:59.216Z,98475.04
2018-09-25T15:01:33.598Z,98473.57
2018-09-25T15:04:08.006Z,98463.83
2018-09-25T15:06:43.830Z,98456.39
2018-09-25T15:09:18.335Z,98458.24
2018-09-25T15:11:52.844Z,98451.28
2018-09-25T15:14:27.211Z,98459.73
2018-09-25T15:17:01.530Z,98457.47
2018-09-25T15:19:36.218Z,98451.52
2018-09-25T15:22:10.867Z,98443.60
2018-09-25T15:24:44.939Z,98447.91
2018-09-25T15:27:19.515Z,98449.70
2018-09-25T15:29:53.905Z,98449.11
2018-09-25T15:32:28.589Z,98445.50
2018-09-25T15:35:03.149Z,98440.90
2018-09-25T15:37:37.526Z,98439.88
2018-09-25T15:40:12.229Z,98444.55
2018-09-25T15:42:46.700Z,98450.36
2018-09-25T15:45:21.186Z,98447.86
2018-09-25T15:47:55.644Z,98444.45
2018-09-25T15:50:30.154Z,98438.73
2018-09-25T15:53:04.606Z,98437.66
2018-09-25T15:55:38.954Z,98435.80
2018-09-25T15:58:14.018Z,98429.36
2018-09-25T16:00:48.452Z,98434.89
2018-09-25T16:03:22.948Z,98431.70
2018-09-25T16:05:57.459Z,98429.20
2018-09-25T16:08:31.919Z,98429.90
2018-09-25T16:11:06.315Z,98433.84
2018-09-25T16:13:40.687Z,98430.84
2018-09-25T16:16:15.044Z,98430.01
2018-09-25T16:18:49.451Z,98433.64
2018-09-25T16:21:23.943Z,98436.91
2018-09-25T16:23:59.562Z,98439.66
2018-09-25T16:26:34.054Z,98440.41
2018-09-25T16:29:08.615Z,98437.89
2018-09-25T16:31:44.886Z,98440.97
2018-09-25T16:34:19.351Z,98437.50
2018-09-25T16:36:53.817Z,98436.05
2018-09-25T16:39:28.221Z,98445.54
2018-09-25T16:42:02.734Z,98447.91
2018-09-25T16:44:37.187Z,98440.73
2018-09-25T16:47:11.652Z,98441.25
2018-09-25T16:49:46.147Z,98439.87
2018-09-25T16:52:20.675Z,98450.01
2018-09-25T16:54:55.082Z,98447.66
2018-09-25T16:57:29.576Z,98449.63
2018-09-25T17:00:04.019Z,98446.03
2018-09-25T17:02:38.394Z,98446.73
2018-09-25T17:05:13.998Z,98453.23
2018-09-25T17:07:48.421Z,98451.14
2018-09-25T17:10:29.745Z,98452.04
2018-09-25T17:13:04.272Z,98442.14
2018-09-25T17:15:38.859Z,98439.27
2018-09-25T17:18:14.524Z,98444.57
2018-09-25T17:20:49.019Z,98448.48
2018-09-25T17:23:23.538Z,98448.95
2018-09-25T17:25:58.131Z,98438.96
2018-09-25T17:28:32.569Z,98438.91
2018-09-25T17:31:07.155Z,98440.91
2018-09-25T17:33:41.608Z,98444.52
2018-09-25T17:36:16.143Z,98447.73
2018-09-25T17:38:50.579Z,98441.87
2018-09-25T17:41:25.150Z,98444.52
2018-09-25T17:43:59.745Z,98437.89
2018-09-25T17:46:34.102Z,98435.61
2018-09-25T17:49:08.725Z,98440.97
2018-09-25T17:51:44.390Z,98449.52
2018-09-25T17:54:20.636Z,98449.38
2018-09-25T17:56:55.028Z,98456.37
2018-09-25T17:59:29.522Z,98455.95
2018-09-25T18:02:03.858Z,98465.19
2018-09-25T18:04:38.343Z,98465.06
2018-09-25T18:07:12.819Z,98460.80
2018-09-25T18:09:47.293Z,98470.58
2018-09-25T18:12:21.649Z,98470.52
2018-09-25T18:14:56.206Z,98467.06
2018-09-25T18:17:30.695Z,98473.16
2018-09-25T18:20:05.184Z,98475.19
2018-09-25T18:22:39.621Z,98479.06
2018-09-25T18:25:14.311Z,98486.53
2018-09-25T18:27:48.834Z,98494.63
2018-09-25T18:30:23.126Z,98494.16
2018-09-25T18:32:57.513Z,98500.85
2018-09-25T18:35:31.884Z,98503.73
2018-09-25T18:38:06.298Z,98505.13
2018-09-25T18:40:40.655Z,98506.28
2018-09-25T18:43:15.063Z,98516.47
2018-09-25T18:45:49.519Z,98518.70
2018-09-25T18:48:23.886Z,98514.13
2018-09-25T18:50:58.373Z,98511.25
2018-09-25T18:53:32.725Z,98496.36
2018-09-25T18:56:07.121Z,98504.70
2018-09-25T18:58:41.664Z,98507.63
2018-09-25T19:01:16.229Z,98507.23
2018-09-25T19:03:50.650Z,98510.48
2018-09-25T19:06:24.946Z,98518.98
2018-09-25T19:08:59.963Z,98519.98
2018-09-25T19:11:34.431Z,98528.92
2018-09-25T19:14:08.778Z,98527.08
2018-09-25T19:16:44.638Z,98528.70
2018-09-25T19:19:19.156Z,98524.53
2018-09-25T19:21:53.558Z,98529.50
2018-09-25T19:24:28.062Z,98537.02
2018-09-25T19:27:02.487Z,98540.30
2018-09-25T19:29:36.767Z,98543.84
2018-09-25T19:32:11.010Z,98543.03
2018-09-25T19:34:45.427Z,98542.34
2018-09-25T19:37:19.955Z,98541.19
2018-09-25T19:39:54.402Z,98539.03
2018-09-25T19:42:28.893Z,98540.05
2018-09-25T19:45:03.538Z,98536.91
2018-09-25T19:47:37.902Z,98543.23
2018-09-25T19:50:12.330Z,98544.83
2018-09-25T19:52:46.773Z,98545.53
2018-09-25T19:55:21.339Z,98552.18
2018-09-25T19:57:55.875Z,98555.59
2018-09-25T20:00:30.327Z,98549.01
2018-09-25T20:03:04.700Z,98547.17
2018-09-25T20:05:39.205Z,98547.14
2018-09-25T20:08:14.622Z,98548.86
2018-09-25T20:10:48.982Z,98547.88
2018-09-25T20:13:23.565Z,98554.67
2018-09-25T20:15:58.174Z,98558.32
2018-09-25T20:18:32.591Z,98551.91
2018-09-25T20:21:06.883Z,98554.38
2018-09-25T20:23:41.423Z,98549.39
2018-09-25T20:26:15.815Z,98555.16
2018-09-25T20:28:50.579Z,98550.39
2018-09-25T20:31:25.024Z,98545.13
2018-09-25T20:34:00.069Z,98543.34
2018-09-25T20:36:34.492Z,98540.90
2018-09-25T20:39:09.027Z,98545.03
2018-09-25T20:41:44.775Z,98549.31
2018-09-25T20:44:19.197Z,98545.20
2018-09-25T20:46:53.760Z,98541.94
2018-09-25T20:49:28.359Z,98545.55
2018-09-25T20:52:02.691Z,98544.91
2018-09-25T20:54:37.169Z,98546.88
2018-09-25T20:57:11.673Z,98550.84
2018-09-25T20:59:46.097Z,98553.80
2018-09-25T21:02:20.571Z,98553.31
2018-09-25T21:04:55.087Z,98558.42
2018-09-25T21:07:29.494Z,98557.94
2018-09-25T21:10:03.903Z,98558.73
2018-09-25T21:12:38.379Z,98557.94
2018-09-25T21:15:12.893Z,98545.56
2018-09-25T21:17:47.369Z,98540.97
2018-09-25T21:20:21.724Z,98534.70
2018-09-25T21:22:56.232Z,98537.18
2018-09-25T21:25:30.721Z,98538.34
2018-09-25T21:28:05.203Z,98545.25
2018-09-25T21:30:39.743Z,98543.59
2018-09-25T21:33:14.878Z,98544.92
2018-09-25T21:35:49.324Z,98543.91
2018-09-25T21:38:23.690Z,98540.27
2018-09-25T21:40:58.174Z,98536.16
2018-09-25T21:43:32.474Z,98533.98
2018-09-25T21:46:07.054Z,98533.02
2018-09-25T21:48:41.497Z,98528.09
2018-09-25T21:51:15.984Z,98522.66
2018-09-25T21:53:50.265Z,98523.29
2018-09-25T21:56:24.602Z,98522.48
2018-09-25T21:59:00.294Z,98524.75
2018-09-25T22:01:34.840Z,98522.80
2018-09-25T22:04:09.223Z,98519.66
2018-09-25T22:06:44.790Z,98515.70
2018-09-25T22:09:19.269Z,98514.50
2018-09-25T22:11:53.607Z,98514.28
2018-09-25T22:14:28.055Z,98511.49
2018-09-25T22:17:02.434Z,98504.23
2018-09-25T22:19:36.862Z,98502.20
2018-09-25T22:22:11.497Z,98492.37
2018-09-25T22:24:46.081Z,98485.73
2018-09-25T22:27:20.539Z,98491.13
2018-09-25T22:29:55.027Z,98483.70
2018-09-25T22:32:29.442Z,98480.06
2018-09-25T22:35:03.966Z,98479.84
2018-09-25T22:37:38.439Z,98475.94
2018-09-25T22:40:12.802Z,98478.96
2018-09-25T22:42:47.135Z,98470.63
2018-09-25T22:45:21.686Z,98464.37
2018-09-25T22:47:56.075Z,98467.80
2018-09-25T22:50:30.500Z,98469.78
2018-09-25T22:53:05.032Z,98465.16
2018-09-25T22:55:39.479Z,98463.48
2018-09-25T22:58:14.859Z,98467.86
2018-09-25T23:00:49.350Z,98463.23
2018-09-25T23:03:23.700Z,98463.33
2018-09-25T23:05:58.196Z,98460.83
2018-09-25T23:08:32.551Z,98463.00
2018-09-25T23:11:06.940Z,98456.27
2018-09-25T23:13:41.315Z,98456.39
2018-09-25T23:16:15.766Z,98447.06
2018-09-25T23:18:50.174Z,98446.93
2018-09-25T23:21:24.546Z,98447.33
2018-09-25T23:23:58.931Z,98442.41
2018-09-25T23:26:33.404Z,98446.22
2018-09-25T23:29:07.735Z,98439.33
2018-09-25T23:31:42.321Z,98441.20
2018-09-25T23:34:16.800Z,98444.16
2018-09-25T23:36:51.288Z,98449.13
2018-09-25T23:39:28.716Z,98444.83
2018-09-25T23:42:03.032Z,98441.20
2018-09-25T23:44:37.341Z,98434.94
2018-09-25T23:47:12.421Z,98437.61
2018-09-25T23:49:45.694Z,98437.13
2018-09-25T23:52:19.199Z,98433.95
2018-09-25T23:54:52.293Z,98438.33
2018-09-25T23:57:25.579Z,98433.70
